Time;durP1;ratioP1;P1;durP2;ratioP2;P2;SDS_P1;SDS_P2;PMS_P1;PMS_P2;Temp;Humidity;BMP_temperature;BMP_pressure;BME280_temperature;BME280_humidity;BME280_pressure;Samples;Min_cycle;Max_cycle;Signal;HPM_P1;HPM_P2
2022/11/09 00:01:52;;;;;;;11.13;10.20;;;;;;;15.07;87.84;100323.41;5040501;28;20401;-70
2022/11/09 00:04:19;;;;;;;11.57;10.60;;;;;;;15.15;87.92;100330.28;5030496;28;20084;-71
2022/11/09 00:06:45;;;;;;;13.38;10.93;;;;;;;15.17;87.72;100330.78;5035795;28;20518;-70
2022/11/09 00:09:12;;;;;;;11.77;10.60;;;;;;;15.23;88.05;100337.97;5035082;28;20452;-70
2022/11/09 00:11:39;;;;;;;13.75;10.82;;;;;;;15.21;87.80;100330.97;5031175;28;20049;-70
2022/11/09 00:14:06;;;;;;;12.32;11.05;;;;;;;15.26;87.98;100331.72;5034893;28;20403;-70
2022/11/09 00:16:33;;;;;;;13.27;11.93;;;;;;;15.25;87.74;100330.06;5031708;28;20522;-71
2022/11/09 00:19:00;;;;;;;16.42;11.32;;;;;;;15.30;88.14;100338.34;5038867;28;20053;-70
2022/11/09 00:21:27;;;;;;;12.30;11.38;;;;;;;15.28;87.94;100335.03;5033081;28;20062;-70
2022/11/09 00:23:54;;;;;;;13.95;12.50;;;;;;;15.31;88.05;100336.38;5031487;28;20059;-69
2022/11/09 00:26:20;;;;;;;16.70;12.77;;;;;;;15.35;88.02;100335.44;5039966;28;20060;-70
2022/11/09 00:28:48;;;;;;;14.90;12.88;;;;;;;15.35;87.88;100323.31;5048052;28;20051;-70
2022/11/09 00:31:20;;;;;;;17.17;12.70;;;;;;;15.35;87.76;100326.13;5031873;28;20055;-70
2022/11/09 00:33:51;;;;;;;13.32;12.13;;;;;;;15.16;88.14;100299.03;5043176;28;20049;-73
2022/11/09 00:36:19;;;;;;;14.00;11.75;;;;;;;15.34;88.53;100322.50;5057772;28;20699;-72
2022/11/09 00:38:51;;;;;;;13.20;11.80;;;;;;;15.33;88.11;100325.63;5044099;28;20407;-71
2022/11/09 00:41:19;;;;;;;13.70;10.60;;;;;;;15.34;88.40;100313.22;5042064;28;20858;-71
2022/11/09 00:43:46;;;;;;;12.73;10.95;;;;;;;15.33;88.32;100325.63;5037435;28;20076;-72
2022/11/09 00:46:13;;;;;;;11.75;10.40;;;;;;;15.26;88.90;100314.00;5032988;28;20056;-71
2022/11/09 00:48:40;;;;;;;12.25;10.90;;;;;;;15.36;88.94;100320.22;5044601;28;20045;-71
2022/11/09 00:51:08;;;;;;;13.48;10.43;;;;;;;15.39;88.88;100313.94;5038623;28;20049;-71
2022/11/09 00:53:35;;;;;;;12.55;11.25;;;;;;;15.34;88.85;100322.50;5048135;28;20045;-71
2022/11/09 00:56:09;;;;;;;14.75;11.48;;;;;;;15.34;88.43;100311.25;5036262;28;20056;-71
2022/11/09 00:58:37;;;;;;;12.18;11.18;;;;;;;15.38;88.98;100323.53;5046879;28;20403;-71
2022/11/09 01:01:13;;;;;;;15.57;11.20;;;;;;;15.35;88.47;100315.75;5049173;28;20450;-71
2022/11/09 01:03:41;;;;;;;14.18;11.65;;;;;;;15.38;89.28;100311.44;5042483;28;20055;-69
2022/11/09 01:06:12;;;;;;;11.50;10.32;;;;;;;15.39;88.96;100308.31;5035892;28;20057;-72
2022/11/09 01:08:39;;;;;;;15.80;11.25;;;;;;;15.38;88.85;100298.22;5048971;28;20060;-71
2022/11/09 01:11:08;;;;;;;17.95;10.60;;;;;;;15.41;88.90;100300.38;5042754;28;20064;-71
2022/11/09 01:13:36;;;;;;;15.55;12.45;;;;;;;15.43;89.25;100307.69;5046433;28;20052;-71
2022/11/09 01:16:09;;;;;;;19.90;12.05;;;;;;;15.32;88.96;100299.50;5046732;28;20404;-68
2022/11/09 01:18:37;;;;;;;12.85;11.82;;;;;;;15.21;89.30;100308.47;5046139;28;20041;-67
2022/11/09 01:21:08;;;;;;;19.30;17.05;;;;;;;14.92;89.44;100316.16;5041363;28;20056;-70
2022/11/09 01:23:36;;;;;;;21.17;16.80;;;;;;;14.89;90.05;100322.41;5037857;28;20512;-68
2022/11/09 01:26:05;;;;;;;17.05;15.23;;;;;;;14.81;90.30;100319.53;5036233;28;20061;-68
2022/11/09 01:28:32;;;;;;;23.13;16.52;;;;;;;14.82;90.88;100315.56;5050500;28;20045;-68
2022/11/09 01:31:01;;;;;;;25.55;17.95;;;;;;;14.87;90.88;100324.72;5038273;28;20053;-68
2022/11/09 01:33:28;;;;;;;26.48;17.63;;;;;;;14.90;91.32;100332.50;5041291;28;20051;-68
2022/11/09 01:36:05;;;;;;;28.83;16.40;;;;;;;14.84;90.95;100314.09;5041420;28;20132;-68
2022/11/09 01:38:32;;;;;;;19.67;16.23;;;;;;;14.93;91.38;100329.06;5033795;28;20072;-68
2022/11/09 01:41:00;;;;;;;16.60;14.85;;;;;;;14.83;91.47;100306.81;5043557;28;20049;-67
2022/11/09 01:43:27;;;;;;;26.08;16.08;;;;;;;14.95;91.39;100319.50;5047582;28;20040;-68
2022/11/09 01:45:58;;;;;;;22.95;14.80;;;;;;;15.04;91.55;100323.22;5045611;28;20044;-68
2022/11/09 01:48:43;;;;;;;18.80;14.43;;;;;;;15.01;91.33;100321.03;5042718;28;20049;-69
2022/11/09 01:51:35;;;;;;;16.05;14.57;;;;;;;14.98;91.26;100316.88;5038304;28;20064;-68
2022/11/09 01:54:08;;;;;;;19.63;14.15;;;;;;;15.12;91.38;100330.91;5042831;28;20459;-69
2022/11/09 01:56:35;;;;;;;14.73;12.65;;;;;;;15.11;91.36;100334.84;5037595;28;20515;-68
2022/11/09 01:59:12;;;;;;;14.93;13.60;;;;;;;15.03;90.52;100336.44;5034066;28;20492;-67
2022/11/09 02:01:41;;;;;;;13.27;12.05;;;;;;;14.97;89.96;100334.06;5046483;28;20067;-67
2022/11/09 02:04:32;;;;;;;13.15;12.25;;;;;;;14.89;90.05;100344.91;5050055;28;20053;-65
2022/11/09 02:06:59;;;;;;;14.50;13.38;;;;;;;14.78;89.68;100345.44;5040435;28;20415;-66
2022/11/09 02:09:59;;;;;;;13.02;11.70;;;;;;;14.72;89.75;100344.72;5051151;28;20076;-66
2022/11/09 02:12:28;;;;;;;15.98;12.68;;;;;;;14.75;90.20;100360.97;5026757;28;20542;-67
2022/11/09 02:14:56;;;;;;;12.70;11.85;;;;;;;14.76;90.09;100342.94;5046656;28;20518;-66
2022/11/09 02:17:23;;;;;;;17.00;12.27;;;;;;;14.70;90.05;100349.84;5041631;28;20140;-66
2022/11/09 02:19:50;;;;;;;13.57;12.20;;;;;;;14.77;89.99;100369.94;5036136;28;20090;-65
2022/11/09 02:22:17;;;;;;;14.30;12.00;;;;;;;14.76;90.43;100350.53;5036317;28;20412;-66
2022/11/09 02:24:44;;;;;;;12.93;11.93;;;;;;;14.83;90.33;100351.78;5036803;28;20591;-66
2022/11/09 02:27:11;;;;;;;12.98;11.80;;;;;;;14.84;90.70;100353.47;5051926;28;20392;-66
2022/11/09 02:29:41;;;;;;;16.65;12.48;;;;;;;14.87;90.40;100354.78;5051036;28;20665;-66
2022/11/09 02:32:16;;;;;;;15.57;13.13;;;;;;;14.84;90.62;100347.84;5047464;28;20050;-64
2022/11/09 02:34:43;;;;;;;13.00;12.10;;;;;;;14.95;90.92;100367.31;5053604;28;20041;-66
2022/11/09 02:37:10;;;;;;;13.15;12.10;;;;;;;15.03;90.64;100372.19;5043356;28;20415;-67
2022/11/09 02:39:37;;;;;;;14.98;12.32;;;;;;;15.11;90.76;100372.28;5040371;28;20049;-65
2022/11/09 02:42:08;;;;;;;14.48;12.30;;;;;;;15.15;91.02;100383.72;5064045;28;20076;-65
2022/11/09 02:44:44;;;;;;;13.18;11.75;;;;;;;14.95;90.88;100356.06;5045066;28;20099;-65
2022/11/09 02:47:11;;;;;;;12.52;11.65;;;;;;;14.99;90.62;100376.78;5042217;28;20052;-67
2022/11/09 02:49:38;;;;;;;12.68;11.73;;;;;;;14.87;90.89;100363.22;5040262;28;20057;-67
2022/11/09 02:52:05;;;;;;;15.07;13.68;;;;;;;15.10;91.18;100389.44;5037916;28;20053;-68
2022/11/09 02:54:32;;;;;;;16.13;13.18;;;;;;;15.12;90.85;100375.91;5046572;28;20434;-66
2022/11/09 02:56:58;;;;;;;14.27;13.07;;;;;;;15.10;90.83;100375.38;5038488;28;20052;-67
2022/11/09 02:59:25;;;;;;;13.65;12.75;;;;;;;15.09;90.94;100379.34;5040943;28;20072;-67
2022/11/09 03:01:52;;;;;;;13.65;12.48;;;;;;;15.09;90.74;100383.00;5040961;28;20052;-67
2022/11/09 03:04:19;;;;;;;11.88;11.07;;;;;;;15.15;90.72;100386.53;5034239;28;20049;-66
2022/11/09 03:06:46;;;;;;;12.45;11.52;;;;;;;14.97;90.62;100336.88;5036724;28;20132;-66
2022/11/09 03:09:12;;;;;;;12.32;11.20;;;;;;;15.19;90.54;100365.06;5041616;28;20508;-66
2022/11/09 03:11:41;;;;;;;13.27;12.18;;;;;;;15.19;90.43;100364.25;5041334;28;20047;-66
2022/11/09 03:14:10;;;;;;;12.18;11.27;;;;;;;15.22;90.35;100370.06;5042580;28;20048;-66
2022/11/09 03:16:40;;;;;;;12.77;11.43;;;;;;;15.11;90.35;100363.84;5042441;28;20059;-66
2022/11/09 03:19:09;;;;;;;13.00;11.82;;;;;;;15.19;90.42;100381.13;5032517;28;20053;-66
2022/11/09 03:21:36;;;;;;;12.77;12.00;;;;;;;15.18;89.99;100374.66;5035056;28;20049;-66
2022/11/09 03:24:03;;;;;;;12.32;11.32;;;;;;;15.21;89.77;100376.00;5039460;28;20404;-66
2022/11/09 03:26:30;;;;;;;15.30;13.95;;;;;;;15.18;89.73;100374.66;5033875;28;20042;-65
2022/11/09 03:28:56;;;;;;;11.65;10.93;;;;;;;15.19;89.88;100369.88;5034771;28;20060;-66
2022/11/09 03:31:23;;;;;;;11.75;11.00;;;;;;;15.13;89.73;100363.50;5043145;28;20049;-66
2022/11/09 03:33:50;;;;;;;11.70;10.93;;;;;;;15.12;89.06;100371.13;5048461;28;20041;-66
2022/11/09 03:36:18;;;;;;;13.27;10.80;;;;;;;15.05;88.76;100372.72;5033982;28;20063;-66
2022/11/09 03:38:44;;;;;;;12.55;11.60;;;;;;;15.01;89.18;100378.13;5046693;28;20049;-64
2022/11/09 03:41:11;;;;;;;11.73;10.65;;;;;;;14.97;89.37;100379.88;5047136;28;20072;-64
2022/11/09 03:43:38;;;;;;;12.50;11.38;;;;;;;14.98;88.95;100380.75;5026460;28;20049;-64
2022/11/09 03:46:05;;;;;;;12.38;11.38;;;;;;;15.04;89.33;100387.88;5041082;28;20052;-64
2022/11/09 03:48:32;;;;;;;13.30;11.95;;;;;;;15.09;89.74;100393.41;5047755;28;20055;-65
2022/11/09 03:50:59;;;;;;;12.77;11.70;;;;;;;15.07;90.07;100401.31;5039002;28;20044;-65
2022/11/09 03:53:26;;;;;;;15.65;14.48;;;;;;;14.91;89.74;100387.63;5032812;28;20045;-64
2022/11/09 03:55:52;;;;;;;13.35;12.30;;;;;;;14.93;89.89;100393.75;5051619;28;20122;-64
2022/11/09 03:58:19;;;;;;;13.85;12.70;;;;;;;14.93;90.11;100399.34;5039200;28;20054;-64
2022/11/09 04:00:46;;;;;;;13.05;11.90;;;;;;;14.89;90.36;100381.47;5046353;28;20041;-64
2022/11/09 04:03:12;;;;;;;12.13;11.32;;;;;;;14.90;90.66;100382.28;5033442;28;20073;-66
2022/11/09 04:05:39;;;;;;;12.45;11.55;;;;;;;14.96;90.30;100397.91;5042311;28;20049;-64
2022/11/09 04:08:06;;;;;;;13.68;11.60;;;;;;;15.00;90.54;100398.09;5038617;28;20416;-64
2022/11/09 04:10:33;;;;;;;12.60;11.77;;;;;;;14.95;90.35;100398.22;5050795;28;20514;-64
2022/11/09 04:13:00;;;;;;;17.33;16.23;;;;;;;14.92;90.28;100399.69;5049624;28;20052;-64
2022/11/09 04:15:27;;;;;;;12.48;11.40;;;;;;;14.91;90.04;100412.09;5052157;28;20111;-64
2022/11/09 04:17:57;;;;;;;12.90;12.10;;;;;;;14.58;89.54;100367.22;5045324;28;20068;-63
2022/11/09 04:20:26;;;;;;;12.32;11.52;;;;;;;14.80;89.96;100416.22;5041511;28;20060;-64
2022/11/09 04:22:56;;;;;;;13.35;12.23;;;;;;;14.76;90.08;100413.22;5044105;28;20060;-65
2022/11/09 04:25:24;;;;;;;13.82;12.50;;;;;;;14.73;89.97;100407.38;5054058;28;20075;-64
2022/11/09 04:27:56;;;;;;;13.05;11.70;;;;;;;14.71;89.98;100410.53;5045854;28;20080;-65
2022/11/09 04:30:26;;;;;;;13.40;12.27;;;;;;;14.68;89.72;100406.34;5044957;28;20049;-65
2022/11/09 04:32:54;;;;;;;12.88;11.77;;;;;;;14.60;90.02;100409.06;5043391;28;20053;-65
2022/11/09 04:35:21;;;;;;;12.52;11.35;;;;;;;14.61;90.01;100416.34;5038121;28;20052;-65
2022/11/09 04:37:59;;;;;;;12.68;11.57;;;;;;;14.62;90.05;100420.81;5045305;28;20228;-64
2022/11/09 04:40:28;;;;;;;12.48;11.55;;;;;;;14.65;89.97;100429.47;5046911;28;20056;-64
2022/11/09 04:42:58;;;;;;;12.38;11.27;;;;;;;14.64;90.20;100427.81;5041492;28;20052;-64
2022/11/09 04:45:25;;;;;;;13.13;11.93;;;;;;;14.50;90.41;100417.66;5043705;28;20064;-64
2022/11/09 04:48:05;;;;;;;13.20;11.43;;;;;;;14.59;90.20;100413.00;5042282;28;20045;-63
2022/11/09 04:50:33;;;;;;;15.30;11.25;;;;;;;14.71;90.50;100427.38;5040995;28;20056;-64
2022/11/09 04:53:12;;;;;;;12.75;11.82;;;;;;;14.71;90.25;100432.19;5043461;28;20053;-64
2022/11/09 04:55:39;;;;;;;12.07;11.05;;;;;;;14.64;90.24;100415.72;5035165;28;20080;-64
2022/11/09 04:58:06;;;;;;;12.00;11.07;;;;;;;14.65;90.30;100434.25;5047971;28;20042;-64
2022/11/09 05:00:34;;;;;;;12.52;11.43;;;;;;;14.58;90.51;100422.59;5043636;28;20054;-64
2022/11/09 05:03:03;;;;;;;12.18;11.38;;;;;;;14.62;90.33;100437.69;5037175;28;20041;-64
2022/11/09 05:05:32;;;;;;;12.75;11.40;;;;;;;14.65;90.39;100451.09;5040982;28;20045;-64
2022/11/09 05:07:59;;;;;;;12.68;11.48;;;;;;;14.63;90.70;100437.38;5044149;28;20053;-64
2022/11/09 05:10:26;;;;;;;12.35;11.45;;;;;;;14.72;90.75;100445.09;5048948;28;20114;-64
2022/11/09 05:12:59;;;;;;;12.82;11.63;;;;;;;14.71;90.11;100449.88;5050218;28;20064;-64
2022/11/09 05:15:26;;;;;;;13.65;12.13;;;;;;;14.71;90.42;100452.69;5040020;28;20060;-64
2022/11/09 05:17:53;;;;;;;12.32;11.52;;;;;;;14.68;90.64;100462.56;5044514;28;20068;-64
2022/11/09 05:20:19;;;;;;;12.23;11.25;;;;;;;14.65;90.42;100462.34;5050462;28;20053;-64
2022/11/09 05:25:32;;;;;;;12.63;11.50;;;;;;;14.55;90.59;100452.13;5057331;28;20053;-64
2022/11/09 05:27:59;;;;;;;13.00;11.90;;;;;;;14.58;90.51;100456.31;5059734;28;20052;-64
2022/11/09 05:30:26;;;;;;;13.25;12.05;;;;;;;14.52;90.55;100446.31;5067547;28;20056;-64
2022/11/09 05:32:52;;;;;;;14.13;12.68;;;;;;;14.37;90.94;100444.59;5050023;28;20059;-64
2022/11/09 05:35:19;;;;;;;12.77;11.80;;;;;;;14.52;90.53;100464.00;5043764;28;20048;-63
2022/11/09 05:37:49;;;;;;;11.73;11.00;;;;;;;14.50;90.60;100459.81;5039973;28;20064;-64
2022/11/09 05:40:18;;;;;;;12.10;11.40;;;;;;;14.47;91.05;100472.50;5046515;28;20073;-64
2022/11/09 05:42:45;;;;;;;13.23;12.02;;;;;;;14.40;91.05;100460.81;5037713;28;20049;-64
2022/11/09 05:45:14;;;;;;;12.80;11.90;;;;;;;14.43;90.88;100477.06;5045529;28;20148;-64
2022/11/09 05:48:03;;;;;;;16.08;11.90;;;;;;;14.37;91.58;100467.06;5044900;28;20091;-64
2022/11/09 05:50:29;;;;;;;13.90;12.68;;;;;;;14.37;91.36;100476.31;5044549;28;20060;-64
2022/11/09 05:53:00;;;;;;;13.05;11.88;;;;;;;14.35;91.65;100478.59;5037887;28;20411;-64
2022/11/09 05:55:27;;;;;;;13.10;11.93;;;;;;;14.31;91.53;100480.34;5049595;28;20053;-64
2022/11/09 05:57:54;;;;;;;14.15;12.88;;;;;;;14.22;91.95;100465.31;5050317;28;20352;-64
2022/11/09 06:00:21;;;;;;;13.05;12.13;;;;;;;14.32;91.65;100476.38;5037789;28;20053;-64
2022/11/09 06:02:48;;;;;;;16.00;12.98;;;;;;;14.27;91.75;100476.50;5045778;28;20084;-64
2022/11/09 06:05:16;;;;;;;13.90;12.45;;;;;;;14.34;91.69;100479.75;5043053;28;20068;-64
2022/11/09 06:07:42;;;;;;;14.25;12.18;;;;;;;14.30;92.18;100470.25;5034388;28;20053;-64
2022/11/09 06:10:09;;;;;;;15.45;12.90;;;;;;;14.32;91.80;100479.19;5043096;28;20049;-64
2022/11/09 06:12:36;;;;;;;14.35;13.05;;;;;;;14.31;92.08;100480.34;5041289;28;20056;-64
2022/11/09 06:15:04;;;;;;;16.35;13.23;;;;;;;14.24;91.97;100468.69;5042062;28;20049;-65
2022/11/09 06:17:31;;;;;;;15.38;13.18;;;;;;;14.29;92.30;100479.84;5039420;28;20045;-65
2022/11/09 06:19:57;;;;;;;20.15;14.52;;;;;;;14.31;92.24;100488.78;5045079;28;20087;-65
2022/11/09 06:22:24;;;;;;;16.08;13.85;;;;;;;14.26;91.90;100483.25;5042000;28;20507;-65
2022/11/09 06:24:51;;;;;;;13.82;12.77;;;;;;;14.29;92.22;100484.59;5049014;28;20041;-65
2022/11/09 06:27:18;;;;;;;18.77;13.95;;;;;;;14.24;92.00;100485.53;5034920;28;20073;-66
2022/11/09 06:29:44;;;;;;;16.95;13.75;;;;;;;14.21;92.39;100486.13;5038953;28;20049;-66
2022/11/09 06:32:11;;;;;;;16.30;14.02;;;;;;;14.19;92.08;100496.88;5046956;28;20404;-66
2022/11/09 06:34:38;;;;;;;20.77;16.98;;;;;;;14.14;92.22;100496.94;5044467;28;20054;-65
2022/11/09 06:37:05;;;;;;;13.68;12.25;;;;;;;13.99;92.36;100473.59;5044761;28;20044;-64
2022/11/09 06:39:31;;;;;;;13.30;12.05;;;;;;;14.07;92.21;100497.31;5042970;28;20060;-66
2022/11/09 06:41:58;;;;;;;17.30;12.85;;;;;;;14.03;92.70;100496.25;5041334;28;20499;-66
2022/11/09 06:44:25;;;;;;;19.17;14.65;;;;;;;13.98;92.73;100487.91;5042459;28;20131;-65
2022/11/09 06:46:52;;;;;;;13.98;12.98;;;;;;;13.95;92.85;100492.19;5039593;28;20041;-65
2022/11/09 06:49:18;;;;;;;14.07;13.00;;;;;;;13.94;92.64;100501.72;5043804;28;20045;-65
2022/11/09 06:51:45;;;;;;;14.98;13.93;;;;;;;13.88;93.08;100491.75;5035277;28;20052;-64
2022/11/09 06:54:12;;;;;;;13.05;12.35;;;;;;;13.83;92.97;100502.19;5049641;28;20422;-64
2022/11/09 06:56:39;;;;;;;19.25;17.45;;;;;;;13.90;92.92;100500.66;5045532;28;20080;-64
2022/11/09 06:59:06;;;;;;;20.92;18.95;;;;;;;13.86;93.06;100491.19;5045192;28;20045;-64
2022/11/09 07:01:33;;;;;;;24.25;21.88;;;;;;;13.91;92.80;100507.97;5042118;28;20048;-64
2022/11/09 07:04:00;;;;;;;23.98;21.33;;;;;;;13.90;92.98;100511.91;5036155;28;20061;-64
2022/11/09 07:06:27;;;;;;;26.25;18.58;;;;;;;13.88;92.83;100517.00;5049745;28;20060;-64
2022/11/09 07:08:55;;;;;;;22.92;19.85;;;;;;;13.86;92.98;100519.25;5042238;28;20048;-64
2022/11/09 07:11:22;;;;;;;26.75;18.25;;;;;;;13.89;93.01;100535.50;5053290;28;20045;-64
2022/11/09 07:13:49;;;;;;;26.17;18.13;;;;;;;13.91;93.16;100532.38;5035623;28;20049;-63
2022/11/09 07:16:22;;;;;;;16.27;14.73;;;;;;;13.88;93.16;100533.84;5050204;28;20380;-62
2022/11/09 07:18:49;;;;;;;23.33;21.08;;;;;;;13.87;93.18;100525.72;5044210;28;20044;-63
2022/11/09 07:21:16;;;;;;;21.10;19.27;;;;;;;13.88;93.11;100533.84;5038234;28;20407;-63
2022/11/09 07:23:43;;;;;;;18.60;16.65;;;;;;;13.91;93.34;100543.59;5041478;28;20048;-63
2022/11/09 07:26:09;;;;;;;16.27;14.80;;;;;;;13.91;93.15;100538.00;5034719;28;20489;-63
2022/11/09 07:28:37;;;;;;;18.92;17.15;;;;;;;13.90;93.63;100548.41;5034532;28;20143;-63
2022/11/09 07:31:04;;;;;;;18.38;16.48;;;;;;;13.92;93.60;100550.91;5041398;28;20121;-63
2022/11/09 07:33:32;;;;;;;22.38;18.55;;;;;;;13.96;93.62;100552.81;5033109;28;20128;-64
2022/11/09 07:36:00;;;;;;;17.73;16.05;;;;;;;14.04;93.57;100558.88;5030494;28;20049;-64
2022/11/09 07:38:28;;;;;;;15.05;13.95;;;;;;;14.10;93.66;100558.50;5042879;28;20057;-64
2022/11/09 07:41:01;;;;;;;23.73;17.08;;;;;;;14.12;93.36;100558.16;5054544;28;20049;-64
2022/11/09 07:43:28;;;;;;;16.10;14.60;;;;;;;14.20;93.22;100563.13;5037095;28;20322;-64
2022/11/09 07:45:55;;;;;;;14.52;13.27;;;;;;;14.24;93.54;100564.16;5042499;28;20045;-64
2022/11/09 07:48:22;;;;;;;18.02;16.13;;;;;;;14.25;93.17;100574.25;5041991;28;20496;-64
2022/11/09 07:50:49;;;;;;;17.95;16.13;;;;;;;14.22;92.98;100566.44;5038300;28;20045;-64
2022/11/09 07:53:16;;;;;;;20.42;18.00;;;;;;;14.18;93.06;100577.44;5036536;28;20053;-63
2022/11/09 07:55:43;;;;;;;16.17;15.00;;;;;;;14.08;92.96;100569.19;5036223;28;20070;-62
2022/11/09 07:58:13;;;;;;;21.33;16.30;;;;;;;14.14;93.01;100572.75;5035429;28;20495;-61
2022/11/09 08:00:41;;;;;;;20.73;18.83;;;;;;;14.08;92.75;100583.22;5045956;28;20058;-63
2022/11/09 08:03:08;;;;;;;23.70;17.05;;;;;;;14.13;92.94;100585.13;5066969;28;20298;-63
2022/11/09 08:05:36;;;;;;;22.55;20.35;;;;;;;14.05;93.10;100578.25;5038530;28;20456;-63
2022/11/09 08:08:05;;;;;;;19.52;17.95;;;;;;;14.12;92.95;100589.94;5051633;28;20049;-63
2022/11/09 08:10:34;;;;;;;43.97;29.67;;;;;;;14.15;93.00;100594.94;5051297;28;20057;-63
2022/11/09 08:13:03;;;;;;;37.00;25.10;;;;;;;14.31;93.03;100611.53;5061278;28;20062;-63
2022/11/09 08:15:31;;;;;;;25.42;16.98;;;;;;;14.34;92.98;100614.56;5038740;28;20052;-63
2022/11/09 08:17:59;;;;;;;21.80;16.58;;;;;;;14.40;92.96;100616.19;5048364;28;20056;-63
2022/11/09 08:20:27;;;;;;;19.95;16.30;;;;;;;14.41;92.34;100631.88;5047514;28;20065;-63
2022/11/09 08:22:55;;;;;;;17.20;15.50;;;;;;;14.45;92.52;100621.69;5045259;28;20053;-63
2022/11/09 08:25:29;;;;;;;17.58;15.77;;;;;;;14.42;92.28;100616.69;5051359;28;20044;-63
2022/11/09 08:27:56;;;;;;;15.52;14.57;;;;;;;14.38;92.23;100606.38;5040923;28;20049;-64
2022/11/09 08:30:23;;;;;;;13.63;12.73;;;;;;;14.46;92.06;100634.63;5043049;28;20430;-64
2022/11/09 08:32:52;;;;;;;13.02;12.10;;;;;;;14.50;91.98;100632.06;5034995;28;20052;-64
2022/11/09 08:35:21;;;;;;;9.55;9.05;;;;;;;14.58;91.87;100628.56;5039079;28;20164;-64
2022/11/09 08:37:50;;;;;;;11.70;11.10;;;;;;;14.57;91.87;100626.91;5041796;28;20061;-63
2022/11/09 08:40:19;;;;;;;13.98;12.57;;;;;;;14.72;92.08;100641.84;5040332;28;20049;-62
2022/11/09 08:42:47;;;;;;;11.77;11.07;;;;;;;14.74;91.85;100640.41;5045443;28;20072;-62
2022/11/09 08:45:14;;;;;;;17.25;16.00;;;;;;;14.75;91.94;100647.69;5033380;28;20037;-63
2022/11/09 08:47:42;;;;;;;12.85;12.00;;;;;;;14.83;92.10;100652.59;5038923;28;20053;-64
2022/11/09 08:50:11;;;;;;;15.25;13.75;;;;;;;14.86;91.84;100657.63;5039474;28;20478;-64
2022/11/09 08:52:38;;;;;;;21.00;18.90;;;;;;;14.96;92.05;100665.03;5041594;28;20080;-64
2022/11/09 08:55:05;;;;;;;15.27;13.93;;;;;;;15.05;91.55;100662.38;5037667;28;20037;-64
2022/11/09 08:57:32;;;;;;;15.20;14.07;;;;;;;14.98;91.67;100645.91;5042694;28;20068;-64
2022/11/09 08:59:59;;;;;;;16.35;13.57;;;;;;;15.18;91.35;100672.84;5047928;28;20708;-63
2022/11/09 09:02:26;;;;;;;13.25;12.30;;;;;;;15.21;91.54;100672.19;5043698;28;20407;-63
2022/11/09 09:04:53;;;;;;;13.10;12.13;;;;;;;15.14;90.66;100677.38;5045583;28;20507;-64
2022/11/09 09:07:19;;;;;;;16.98;15.63;;;;;;;15.20;91.38;100648.03;5044566;28;20060;-63
2022/11/09 09:09:46;;;;;;;15.77;14.45;;;;;;;15.90;92.99;100672.31;5040895;28;20586;-63
2022/11/09 09:12:13;;;;;;;16.33;14.90;;;;;;;16.89;94.63;100676.28;5033659;28;20053;-64
2022/11/09 09:14:40;;;;;;;15.10;11.95;;;;;;;17.94;94.40;100689.03;5048523;28;20045;-64
2022/11/09 09:17:07;;;;;;;12.60;9.70;;;;;;;18.19;93.80;100678.97;5042837;28;21581;-64
2022/11/09 09:19:34;;;;;;;15.23;12.52;;;;;;;17.90;92.15;100685.19;5034241;28;20061;-62
2022/11/09 09:22:01;;;;;;;13.07;11.75;;;;;;;17.59;91.70;100688.00;5032597;28;20056;-63
2022/11/09 09:24:28;;;;;;;13.95;12.52;;;;;;;17.52;89.91;100688.47;5044587;28;20053;-63
2022/11/09 09:26:55;;;;;;;14.32;12.77;;;;;;;17.71;90.52;100693.91;5037465;28;20049;-64
2022/11/09 09:29:22;;;;;;;12.35;11.48;;;;;;;18.23;91.01;100692.09;5049160;28;20088;-63
2022/11/09 09:31:49;;;;;;;16.98;15.75;;;;;;;19.01;89.38;100701.84;5043071;28;20061;-64
2022/11/09 09:34:16;;;;;;;10.50;9.52;;;;;;;19.70;91.12;100686.75;5043430;28;20049;-63
2022/11/09 09:36:43;;;;;;;13.13;10.48;;;;;;;20.19;90.45;100704.19;5040729;28;20061;-64
2022/11/09 09:39:14;;;;;;;15.13;14.02;;;;;;;20.29;89.85;100700.97;5043513;28;20048;-63
2022/11/09 09:41:53;;;;;;;10.90;9.73;;;;;;;20.91;88.58;100697.38;5039972;28;20419;-63
2022/11/09 09:44:35;;;;;;;15.70;14.38;;;;;;;21.22;88.78;100701.78;5041755;28;20049;-63
2022/11/09 09:47:21;;;;;;;13.10;12.07;;;;;;;20.95;87.84;100691.84;5042348;28;20049;-63
2022/11/09 09:50:02;;;;;;;12.75;11.32;;;;;;;21.12;88.53;100705.88;5052411;28;20056;-63
2022/11/09 09:52:41;;;;;;;13.60;11.00;;;;;;;21.28;87.52;100700.38;5050629;28;20110;-63
2022/11/09 09:55:30;;;;;;;17.27;15.63;;;;;;;21.73;87.33;100708.09;5050576;28;20041;-63
2022/11/09 09:58:09;;;;;;;11.57;10.68;;;;;;;21.83;86.54;100707.66;5043768;28;20431;-63
2022/11/09 10:00:37;;;;;;;12.80;11.52;;;;;;;21.73;85.93;100710.94;5046154;28;20059;-64
2022/11/09 10:03:05;;;;;;;12.27;11.05;;;;;;;21.29;83.58;100714.22;5041368;28;20053;-64
2022/11/09 10:05:45;;;;;;;13.88;12.23;;;;;;;20.76;83.00;100723.56;5042390;28;20056;-64
2022/11/09 10:08:47;;;;;;;14.13;12.52;;;;;;;20.29;84.33;100721.66;5040943;28;20053;-63
2022/11/09 10:11:40;;;;;;;13.90;12.70;;;;;;;19.86;82.27;100727.50;5044319;28;20053;-64
2022/11/09 10:14:12;;;;;;;14.95;13.35;;;;;;;19.11;81.76;100736.31;5047819;28;20053;-64
2022/11/09 10:16:51;;;;;;;12.40;11.48;;;;;;;18.80;82.48;100732.81;5045574;28;20423;-64
2022/11/09 10:19:21;;;;;;;14.85;13.25;;;;;;;18.57;82.63;100730.09;5040739;28;20057;-64
2022/11/09 10:21:54;;;;;;;;;;;;;;;18.03;84.75;100731.44;5043427;28;20053;-65
2022/11/09 10:24:29;;;;;;;13.27;11.85;;;;;;;18.17;84.78;100741.47;5047767;28;19927;-64
2022/11/09 10:26:58;;;;;;;13.70;11.95;;;;;;;18.17;84.90;100732.16;5039603;28;20051;-64
2022/11/09 10:29:47;;;;;;;14.68;13.10;;;;;;;17.94;84.31;100739.88;5045492;28;20053;-64
2022/11/09 10:32:17;;;;;;;14.32;12.20;;;;;;;17.85;84.33;100737.03;5042149;28;20128;-64
2022/11/09 10:34:50;;;;;;;17.30;15.68;;;;;;;17.69;84.81;100745.03;5046418;28;20053;-64
2022/11/09 10:37:26;;;;;;;15.18;12.45;;;;;;;17.73;85.35;100746.06;5037927;28;20518;-64
2022/11/09 10:40:17;;;;;;;15.07;13.30;;;;;;;17.69;85.86;100739.41;5043666;28;20510;-63
2022/11/09 10:42:57;;;;;;;21.23;14.02;;;;;;;17.78;85.97;100745.13;5045486;28;20068;-63
2022/11/09 10:45:33;;;;;;;13.73;12.45;;;;;;;17.85;85.93;100750.31;5045498;28;20037;-65
2022/11/09 10:48:02;;;;;;;14.93;13.52;;;;;;;17.83;85.93;100756.28;5036878;28;20190;-63
2022/11/09 10:50:51;;;;;;;15.63;14.15;;;;;;;17.73;85.83;100762.19;5039280;28;20349;-64
2022/11/09 10:53:23;;;;;;;;;;;;;;;17.44;88.01;100757.84;5034431;28;20053;-63
2022/11/09 10:55:56;;;;;;;16.00;14.10;;;;;;;17.63;87.37;100757.63;5041421;28;19958;-63
2022/11/09 10:58:54;;;;;;;15.93;13.75;;;;;;;17.71;88.59;100761.69;5042675;28;20071;-64
2022/11/09 11:01:23;;;;;;;14.48;13.25;;;;;;;17.90;88.23;100756.66;5030592;28;20045;-64
2022/11/09 11:03:52;;;;;;;16.17;14.60;;;;;;;17.86;88.35;100754.81;5046118;28;20051;-64
2022/11/09 11:06:22;;;;;;;17.45;12.45;;;;;;;17.89;87.87;100769.13;5034496;28;20049;-64
2022/11/09 11:09:15;;;;;;;16.30;14.13;;;;;;;17.65;88.22;100777.09;5040022;28;20140;-64
2022/11/09 11:11:42;;;;;;;18.15;13.10;;;;;;;17.54;87.76;100779.34;5043944;28;20236;-65
2022/11/09 11:14:32;;;;;;;12.82;11.68;;;;;;;17.47;88.19;100778.94;5040342;28;20053;-65
2022/11/09 11:17:00;;;;;;;22.15;12.52;;;;;;;17.71;89.03;100775.81;5031260;28;20053;-63
2022/11/09 11:19:30;;;;;;;14.25;12.05;;;;;;;18.15;89.97;100786.19;5038573;28;20061;-64
2022/11/09 11:22:33;;;;;;;18.10;11.52;;;;;;;18.60;90.71;100788.84;5045470;28;20146;-63
2022/11/09 11:25:02;;;;;;;18.95;10.48;;;;;;;19.02;90.39;100779.94;5038806;28;20053;-64